Houston, Texas
Traffic Map
Current Weather Conditions
Houston, Texas
Broken Clouds
Broken Clouds
20°
Feels Like: 20°
Wind Chill: 20° Ceiling: 600
Heat Index: 20° Visibility: 5mi
Dew Point: 17° Wind: 0mph
Humidity: 83% Direction: ° ()
Pressure: 30.14in Gusts: 0mph
Raw Report DataKMCJ 201355Z AUTO 00000KT 5SM BKN006 20/17 A3014 RMK AO1
Traffic Incident Summary
Active as of:
Severity:
Category:
InformationThere was an issue retrieving the traffic information for this location. Please try a different location or try again shortly.
Advertisements
At Last! Intellicast now available for iPhone and Android